Time;durP1;ratioP1;P1;durP2;ratioP2;P2;SDS_P1;SDS_P2;PMS_P1;PMS_P2;Temp;Humidity;BMP_temperature;BMP_pressure;BME280_temperature;BME280_humidity;BME280_pressure;Samples;Min_cycle;Max_cycle;Signal;HPM_P1;HPM_P2
2022/01/07 00:01:54;;;;;;;5.70;2.75;;;-0.50;99.90;;;;;;5017484;28;20092;-81
2022/01/07 00:04:19;;;;;;;5.22;3.30;;;-0.60;99.90;;;;;;5017200;28;20030;-80
2022/01/07 00:06:45;;;;;;;6.15;3.42;;;-0.60;99.90;;;;;;4999908;28;20026;-81
2022/01/07 00:09:11;;;;;;;5.18;3.05;;;-0.60;99.90;;;;;;5017557;28;20045;-81
2022/01/07 00:11:37;;;;;;;6.57;2.72;;;-0.60;99.90;;;;;;5016891;28;20025;-81
2022/01/07 00:14:02;;;;;;;4.72;2.55;;;-0.60;99.90;;;;;;5016874;28;20045;-81
2022/01/07 00:16:28;;;;;;;6.10;3.03;;;-0.60;99.90;;;;;;4998077;28;20045;-81
2022/01/07 00:18:56;;;;;;;4.70;2.58;;;-0.60;99.90;;;;;;5017099;28;20246;-81
2022/01/07 00:21:22;;;;;;;9.10;3.33;;;-0.60;99.90;;;;;;5016101;28;20022;-81
2022/01/07 00:23:48;;;;;;;8.32;3.42;;;-0.70;99.90;;;;;;5016690;28;20018;-83
2022/01/07 00:26:13;;;;;;;8.63;3.33;;;-0.70;99.90;;;;;;5001577;28;20053;-82
2022/01/07 00:28:39;;;;;;;6.05;3.10;;;-0.70;99.90;;;;;;5016638;28;20026;-82
2022/01/07 00:31:05;;;;;;;9.52;3.17;;;-0.70;99.90;;;;;;5018793;28;20060;-82
2022/01/07 00:33:30;;;;;;;6.93;3.05;;;-0.80;99.90;;;;;;5016526;28;20045;-81
2022/01/07 00:35:56;;;;;;;4.65;2.78;;;-0.80;99.90;;;;;;5016956;28;20102;-80
2022/01/07 00:38:23;;;;;;;4.38;2.72;;;-0.80;99.90;;;;;;5017452;28;20483;-80
2022/01/07 00:40:49;;;;;;;5.60;2.95;;;-0.90;99.90;;;;;;5016760;28;20066;-82
2022/01/07 00:43:15;;;;;;;5.13;2.50;;;-1.00;99.90;;;;;;5018340;28;20045;-81
2022/01/07 00:45:43;;;;;;;4.97;2.58;;;-1.00;99.90;;;;;;5021118;28;20033;-84
2022/01/07 00:48:09;;;;;;;5.50;2.47;;;-1.10;99.90;;;;;;5020423;28;20029;-83
2022/01/07 00:50:35;;;;;;;5.70;2.30;;;-1.10;99.90;;;;;;4999315;28;20410;-82
2022/01/07 00:53:01;;;;;;;5.15;2.42;;;-1.10;99.90;;;;;;5018430;28;20394;-81
2022/01/07 00:55:27;;;;;;;4.60;2.72;;;-1.10;99.90;;;;;;5001980;28;20026;-80
2022/01/07 00:57:54;;;;;;;8.32;2.72;;;-1.10;99.90;;;;;;5016916;28;20018;-81
2022/01/07 01:00:21;;;;;;;6.00;2.75;;;-1.10;99.90;;;;;;5015809;28;20025;-83
2022/01/07 01:02:47;;;;;;;4.97;2.22;;;-1.10;99.90;;;;;;5002189;28;20026;-82
2022/01/07 01:05:23;;;;;;;5.85;2.55;;;-1.20;99.90;;;;;;5018356;28;20068;-85
2022/01/07 01:07:49;;;;;;;4.15;2.17;;;-1.10;99.90;;;;;;5020492;28;20041;-82
2022/01/07 01:10:17;;;;;;;4.55;2.15;;;-1.10;99.90;;;;;;5003348;28;20030;-82
2022/01/07 01:12:44;;;;;;;2.75;1.77;;;-1.20;99.90;;;;;;5006149;28;20026;-83
2022/01/07 01:15:13;;;;;;;2.72;2.05;;;-1.20;99.90;;;;;;5019798;28;20021;-83
2022/01/07 01:17:39;;;;;;;4.38;2.10;;;-1.20;99.90;;;;;;5009576;28;20052;-84
2022/01/07 01:20:08;;;;;;;2.88;1.70;;;-1.20;99.90;;;;;;5016397;28;20032;-83
2022/01/07 01:22:34;;;;;;;2.88;2.08;;;-1.30;99.90;;;;;;5001340;28;20107;-82
2022/01/07 01:24:59;;;;;;;3.60;1.85;;;-1.20;99.90;;;;;;5020883;28;20030;-83
2022/01/07 01:27:26;;;;;;;10.38;2.13;;;-1.30;99.90;;;;;;5020504;28;20030;-82
2022/01/07 01:29:51;;;;;;;5.70;1.65;;;-1.30;99.90;;;;;;5002344;28;20034;-82
2022/01/07 01:32:17;;;;;;;4.15;1.90;;;-1.30;99.90;;;;;;5002716;28;20057;-81
2022/01/07 01:34:43;;;;;;;2.83;1.73;;;-1.30;99.90;;;;;;5002648;28;20075;-82
2022/01/07 01:37:09;;;;;;;4.88;1.83;;;-1.40;99.90;;;;;;5000700;28;20113;-83
2022/01/07 01:39:35;;;;;;;5.07;2.05;;;-1.40;99.90;;;;;;5018185;28;20070;-82
2022/01/07 01:42:01;;;;;;;3.75;2.05;;;-1.50;99.90;;;;;;5000916;28;20502;-82
2022/01/07 01:44:27;;;;;;;3.33;1.80;;;-1.50;99.90;;;;;;5000748;28;20483;-82
2022/01/07 01:46:53;;;;;;;4.70;2.10;;;-1.50;99.90;;;;;;4995005;28;20069;-82
2022/01/07 01:49:19;;;;;;;7.32;2.42;;;-1.50;99.90;;;;;;4982449;28;20034;-82
2022/01/07 01:51:45;;;;;;;2.80;1.67;;;-1.50;99.90;;;;;;4983350;28;20501;-83
2022/01/07 01:54:11;;;;;;;4.05;1.88;;;-1.50;99.90;;;;;;5018633;28;20335;-83
2022/01/07 01:56:36;;;;;;;1.48;1.30;;;-1.50;99.90;;;;;;5001977;28;20037;-82
2022/01/07 01:59:03;;;;;;;2.63;1.58;;;-1.50;99.90;;;;;;5002253;28;20029;-82
2022/01/07 02:01:29;;;;;;;6.10;2.10;;;-1.60;99.90;;;;;;5018385;28;20033;-83
2022/01/07 02:03:55;;;;;;;3.67;1.73;;;-1.60;99.90;;;;;;5000609;28;20026;-83
2022/01/07 02:06:21;;;;;;;4.55;1.90;;;-1.60;99.90;;;;;;4999681;28;20060;-83
2022/01/07 02:08:48;;;;;;;2.30;1.77;;;-1.70;99.90;;;;;;4999666;28;20038;-82
2022/01/07 02:11:14;;;;;;;1.70;1.52;;;-1.70;99.90;;;;;;5020653;28;20081;-83
2022/01/07 02:13:39;;;;;;;3.97;1.77;;;-1.70;99.90;;;;;;5022916;28;20434;-82
2022/01/07 02:16:05;;;;;;;3.88;1.42;;;-1.70;99.90;;;;;;5015267;28;20026;-82
2022/01/07 02:18:31;;;;;;;4.88;1.70;;;-1.80;99.90;;;;;;4985456;28;20042;-82
2022/01/07 02:20:57;;;;;;;4.95;1.90;;;-1.80;99.90;;;;;;5003716;28;20030;-82
2022/01/07 02:23:22;;;;;;;2.97;1.58;;;-1.90;99.90;;;;;;5018363;28;20049;-82
2022/01/07 02:25:49;;;;;;;2.22;1.33;;;-1.90;99.90;;;;;;5016271;28;20501;-83
2022/01/07 02:28:15;;;;;;;3.13;1.67;;;-1.90;99.90;;;;;;5033793;28;20026;-83
2022/01/07 02:30:41;;;;;;;5.10;1.98;;;-1.90;99.90;;;;;;5013420;28;20061;-82
2022/01/07 02:33:07;;;;;;;4.05;1.45;;;-1.90;99.90;;;;;;5023404;28;20026;-82
2022/01/07 02:35:35;;;;;;;6.22;2.85;;;-1.90;99.90;;;;;;5011262;28;20041;-83
2022/01/07 02:38:01;;;;;;;6.95;1.92;;;-1.80;99.90;;;;;;5026140;28;20088;-83
2022/01/07 02:40:27;;;;;;;5.72;1.40;;;-1.80;99.90;;;;;;5020988;28;20041;-82
2022/01/07 02:42:53;;;;;;;4.55;1.88;;;-1.90;99.90;;;;;;5017700;28;20097;-83
2022/01/07 02:45:19;;;;;;;2.33;1.40;;;-2.00;99.90;;;;;;5026396;28;20033;-82
2022/01/07 02:47:54;;;;;;;2.88;1.35;;;-2.00;99.90;;;;;;5009258;28;20178;-82
2022/01/07 02:50:26;;;;;;;3.50;1.30;;;-2.00;99.90;;;;;;4985419;28;20031;-83
2022/01/07 02:52:53;;;;;;;3.17;1.40;;;-2.00;99.90;;;;;;5022284;28;20030;-83
2022/01/07 02:55:20;;;;;;;3.45;1.50;;;-2.00;99.90;;;;;;5003403;28;20096;-83
2022/01/07 02:57:46;;;;;;;1.88;1.17;;;-2.00;99.90;;;;;;5021757;28;20041;-83
2022/01/07 03:00:14;;;;;;;1.70;1.02;;;-2.00;99.90;;;;;;5004173;28;20028;-83
2022/01/07 03:02:41;;;;;;;1.20;1.02;;;-2.00;99.90;;;;;;5007925;28;20026;-82
2022/01/07 03:05:06;;;;;;;2.83;1.10;;;-2.00;99.90;;;;;;4995251;28;20065;-83
2022/01/07 03:07:34;;;;;;;2.22;1.33;;;-2.10;99.90;;;;;;4983715;28;20049;-83
2022/01/07 03:09:59;;;;;;;2.33;1.10;;;-2.00;99.90;;;;;;4988099;28;20070;-82
2022/01/07 03:12:25;;;;;;;2.67;1.38;;;-2.00;99.90;;;;;;5017503;28;20168;-83
2022/01/07 03:14:51;;;;;;;1.88;1.33;;;-2.00;99.90;;;;;;5008711;28;20037;-82
2022/01/07 03:17:16;;;;;;;0.85;0.85;;;-2.00;99.90;;;;;;4993265;28;20053;-83
2022/01/07 03:19:42;;;;;;;5.30;1.30;;;-2.00;99.90;;;;;;5008741;28;20054;-83
2022/01/07 03:22:08;;;;;;;4.43;1.30;;;-2.00;99.90;;;;;;4984276;28;20036;-83
2022/01/07 03:24:34;;;;;;;1.85;0.90;;;-2.10;99.90;;;;;;5021550;28;20034;-83
2022/01/07 03:27:00;;;;;;;4.55;1.70;;;-2.10;99.90;;;;;;5003440;28;20038;-82
2022/01/07 03:29:25;;;;;;;5.45;1.77;;;-2.10;99.90;;;;;;5004463;28;20121;-83
2022/01/07 03:31:51;;;;;;;2.75;1.50;;;-2.10;99.90;;;;;;5003279;28;20034;-82
2022/01/07 03:34:17;;;;;;;3.20;1.50;;;-2.10;99.90;;;;;;5003571;28;20037;-83
2022/01/07 03:36:42;;;;;;;3.97;1.40;;;-2.20;99.90;;;;;;5021485;28;20068;-83
2022/01/07 03:39:08;;;;;;;3.33;1.75;;;-2.20;99.90;;;;;;5003104;28;20048;-83
2022/01/07 03:41:35;;;;;;;2.47;1.35;;;-2.20;99.90;;;;;;5005157;28;20470;-83
2022/01/07 03:44:00;;;;;;;3.17;1.80;;;-2.20;99.90;;;;;;5001723;28;20033;-83
2022/01/07 03:46:26;;;;;;;3.83;1.65;;;-2.20;99.90;;;;;;5016542;23;20049;-83
2022/01/07 03:48:52;;;;;;;2.10;1.40;;;-2.20;99.90;;;;;;5007104;28;20037;-83
2022/01/07 03:51:18;;;;;;;2.92;1.50;;;-2.30;99.90;;;;;;5005699;28;20022;-83
2022/01/07 03:53:44;;;;;;;4.45;1.75;;;-2.30;99.90;;;;;;5023273;28;20359;-84
2022/01/07 03:56:16;;;;;;;6.18;1.67;;;-2.30;99.90;;;;;;5024670;28;20489;-83
2022/01/07 03:58:42;;;;;;;;;;;-2.30;99.90;;;;;;5006776;28;20022;-84
2022/01/07 04:01:08;;;;;;;2.65;1.77;;;-2.30;99.90;;;;;;5030211;28;19893;-83
2022/01/07 04:03:33;;;;;;;2.50;1.42;;;-2.40;99.90;;;;;;5035792;28;20081;-83
2022/01/07 04:05:59;;;;;;;3.33;1.50;;;-2.30;99.90;;;;;;5007829;28;20053;-84
2022/01/07 04:08:25;;;;;;;3.95;1.67;;;-2.30;99.90;;;;;;5025508;28;20042;-84
2022/01/07 04:10:50;;;;;;;3.13;1.70;;;-2.30;99.90;;;;;;5025860;28;20068;-84
2022/01/07 04:13:16;;;;;;;3.17;1.33;;;-2.30;99.90;;;;;;5026212;28;20061;-84
2022/01/07 04:15:42;;;;;;;3.50;1.67;;;-2.30;99.90;;;;;;5025655;28;20517;-83
2022/01/07 04:18:08;;;;;;;3.45;1.60;;;-2.30;99.90;;;;;;5031063;28;20025;-83
2022/01/07 04:20:35;;;;;;;2.28;1.50;;;-2.30;99.90;;;;;;5035841;28;20030;-82
2022/01/07 04:23:02;;;;;;;2.72;1.38;;;-2.30;99.90;;;;;;5020231;28;20096;-83
2022/01/07 04:25:28;;;;;;;2.72;1.55;;;-2.20;99.90;;;;;;5037205;28;20029;-83
2022/01/07 04:27:57;;;;;;;2.95;1.40;;;-2.30;99.90;;;;;;5037455;28;20018;-83
2022/01/07 04:30:23;;;;;;;4.38;1.70;;;-2.40;99.90;;;;;;5020486;28;20048;-82
2022/01/07 04:32:49;;;;;;;3.50;1.30;;;-2.30;99.90;;;;;;5017970;28;20101;-83
2022/01/07 04:35:16;;;;;;;1.70;1.08;;;-2.40;99.90;;;;;;5036622;28;20021;-83
2022/01/07 04:37:42;;;;;;;2.22;1.45;;;-2.40;99.90;;;;;;5003806;28;20021;-83
2022/01/07 04:40:10;;;;;;;1.23;1.02;;;-2.40;99.90;;;;;;5037984;28;20018;-82
2022/01/07 04:42:37;;;;;;;3.20;1.00;;;-2.40;99.90;;;;;;5037872;28;20014;-83
2022/01/07 04:45:07;;;;;;;3.03;2.13;;;-2.40;99.90;;;;;;5020633;28;20045;-82
2022/01/07 04:47:36;;;;;;;3.10;1.08;;;-2.40;99.90;;;;;;5016648;28;20030;-83
2022/01/07 04:50:29;;;;;;;1.52;1.20;;;-2.50;99.90;;;;;;5027937;28;20041;-83
2022/01/07 04:52:55;;;;;;;1.33;1.15;;;;;;;;;;5024656;28;20042;-83
2022/01/07 04:55:24;;;;;;;2.45;1.10;;;-2.50;99.90;;;;;;5025169;28;20113;-83
2022/01/07 04:57:50;;;;;;;2.42;1.15;;;-2.50;99.90;;;;;;5026669;28;20041;-83
2022/01/07 05:00:19;;;;;;;2.05;1.25;;;-2.50;99.90;;;;;;5026108;28;20037;-84
2022/01/07 05:02:45;;;;;;;4.15;1.50;;;-2.50;99.90;;;;;;5007739;28;20026;-83
2022/01/07 05:05:11;;;;;;;4.70;1.30;;;-2.50;99.90;;;;;;5008933;28;20058;-83
2022/01/07 05:07:37;;;;;;;1.38;0.95;;;-2.50;99.90;;;;;;5030837;28;20069;-82
2022/01/07 05:10:08;;;;;;;2.30;1.15;;;-2.50;99.90;;;;;;5018688;28;20042;-83
2022/01/07 05:12:34;;;;;;;2.35;1.40;;;-2.50;99.90;;;;;;5037002;28;20018;-82
2022/01/07 05:15:00;;;;;;;3.75;1.25;;;-2.50;99.90;;;;;;5019793;28;20072;-83
2022/01/07 05:17:26;;;;;;;3.10;1.73;;;-2.60;99.90;;;;;;5011184;28;20105;-82
2022/01/07 05:19:52;;;;;;;1.98;1.15;;;-2.60;99.90;;;;;;5036716;28;20033;-82
2022/01/07 05:22:17;;;;;;;4.03;1.35;;;-2.60;99.90;;;;;;5037258;28;20017;-81
2022/01/07 05:24:43;;;;;;;4.57;1.70;;;-2.60;99.90;;;;;;5036513;28;20037;-82
2022/01/07 05:27:09;;;;;;;3.53;1.25;;;-2.60;99.90;;;;;;5004466;28;20033;-82
2022/01/07 05:29:35;;;;;;;8.43;1.98;;;-2.60;99.90;;;;;;5021011;28;20090;-84
2022/01/07 05:32:10;;;;;;;2.28;1.73;;;-2.60;99.90;;;;;;5005387;28;20025;-82
2022/01/07 05:34:36;;;;;;;2.10;1.60;;;-2.70;99.90;;;;;;5003659;28;20068;-82
2022/01/07 05:37:02;;;;;;;3.58;1.65;;;-2.60;99.90;;;;;;5020877;28;20042;-82
2022/01/07 05:39:28;;;;;;;2.28;1.10;;;-2.60;99.90;;;;;;5021442;28;20137;-82
2022/01/07 05:41:54;;;;;;;2.40;1.27;;;-2.60;99.90;;;;;;5021658;28;20036;-82
2022/01/07 05:44:21;;;;;;;3.75;1.33;;;-2.60;99.90;;;;;;5004333;28;20033;-82
2022/01/07 05:46:48;;;;;;;3.53;1.65;;;-2.60;99.90;;;;;;5021549;28;20120;-83
2022/01/07 05:49:13;;;;;;;3.63;1.40;;;-2.60;99.90;;;;;;5014548;28;20032;-83
2022/01/07 05:51:41;;;;;;;2.78;2.00;;;-2.60;99.90;;;;;;5022932;28;20077;-83
2022/01/07 05:54:08;;;;;;;2.97;1.60;;;-2.60;99.90;;;;;;5004493;28;20026;-83
2022/01/07 05:56:33;;;;;;;2.97;1.63;;;-2.60;99.90;;;;;;5022936;28;20053;-83
2022/01/07 05:58:59;;;;;;;4.45;1.08;;;-2.60;99.90;;;;;;5020638;28;20037;-83
2022/01/07 06:01:25;;;;;;;2.42;1.35;;;-2.60;99.90;;;;;;5021997;28;20043;-83
2022/01/07 06:03:50;;;;;;;2.83;1.15;;;-2.70;99.90;;;;;;5022884;28;20033;-83
2022/01/07 06:06:16;;;;;;;2.05;1.00;;;-2.60;99.90;;;;;;5021760;28;20057;-82
2022/01/07 06:08:42;;;;;;;1.77;1.10;;;-2.60;99.90;;;;;;5020800;28;20037;-83
2022/01/07 06:11:21;;;;;;;2.35;1.10;;;-2.50;99.90;;;;;;5006223;28;20066;-83
2022/01/07 06:13:47;;;;;;;2.00;1.08;;;-2.60;99.90;;;;;;5004237;28;20049;-83
2022/01/07 06:16:12;;;;;;;1.85;1.05;;;-2.60;99.90;;;;;;5022184;28;20105;-83
2022/01/07 06:18:54;;;;;;;3.53;2.03;;;-2.60;99.90;;;;;;5004048;28;20022;-83
2022/01/07 06:21:21;;;;;;;5.82;2.92;;;-2.60;99.90;;;;;;5003909;28;20037;-83
2022/01/07 06:23:46;;;;;;;3.78;1.80;;;-2.60;99.90;;;;;;5002307;28;20057;-83
2022/01/07 06:26:13;;;;;;;3.13;1.83;;;-2.60;99.90;;;;;;5024853;28;20037;-82
2022/01/07 06:28:39;;;;;;;4.15;1.55;;;-2.70;99.90;;;;;;5012525;28;20021;-82
2022/01/07 06:31:05;;;;;;;6.18;1.67;;;-2.70;99.90;;;;;;5012244;28;20018;-83
2022/01/07 06:33:30;;;;;;;3.75;1.45;;;-2.60;99.90;;;;;;5022590;28;20037;-83
2022/01/07 06:35:56;;;;;;;3.17;1.70;;;-2.60;99.90;;;;;;5002536;28;20030;-83
2022/01/07 06:38:22;;;;;;;3.33;1.23;;;-2.70;99.90;;;;;;5019940;28;20113;-83
2022/01/07 06:40:48;;;;;;;6.00;1.55;;;-2.70;99.90;;;;;;5020924;28;20042;-82
2022/01/07 06:43:13;;;;;;;8.68;2.78;;;-2.70;99.90;;;;;;5003327;28;20038;-83
2022/01/07 06:45:39;;;;;;;2.22;1.23;;;-2.70;99.90;;;;;;5003678;28;20044;-82
2022/01/07 06:48:05;;;;;;;2.40;1.35;;;-2.60;99.90;;;;;;5021689;28;20045;-82
2022/01/07 06:50:31;;;;;;;2.45;0.90;;;-2.70;99.90;;;;;;5022730;28;20038;-82
2022/01/07 06:52:57;;;;;;;4.18;1.08;;;-2.70;99.90;;;;;;5013198;28;20057;-81
2022/01/07 06:55:23;;;;;;;1.85;1.10;;;-2.60;99.90;;;;;;5031594;28;20022;-81
2022/01/07 06:57:48;;;;;;;7.05;2.13;;;-2.60;99.90;;;;;;5035533;28;20060;-82
2022/01/07 07:00:14;;;;;;;4.25;1.48;;;-2.60;99.90;;;;;;5011183;28;20095;-82
2022/01/07 07:02:40;;;;;;;4.45;1.40;;;-2.60;99.90;;;;;;5017384;28;20049;-81
2022/01/07 07:05:06;;;;;;;3.88;1.45;;;-2.60;99.90;;;;;;5039997;28;20033;-81
2022/01/07 07:07:32;;;;;;;2.17;1.10;;;-2.60;99.90;;;;;;5020598;28;20493;-81
2022/01/07 07:09:58;;;;;;;3.05;1.10;;;-2.50;99.90;;;;;;5008907;28;20033;-82
2022/01/07 07:12:23;;;;;;;1.80;1.10;;;-2.50;99.90;;;;;;5025896;28;20029;-82
2022/01/07 07:14:49;;;;;;;3.72;1.30;;;-2.50;99.90;;;;;;5015065;28;20080;-82
2022/01/07 07:17:15;;;;;;;1.40;0.88;;;-2.40;99.90;;;;;;5027530;28;20098;-82
2022/01/07 07:19:40;;;;;;;1.95;0.68;;;-2.40;99.90;;;;;;5030157;28;20052;-83
2022/01/07 07:22:06;;;;;;;3.45;1.17;;;-2.30;99.90;;;;;;5015617;28;20014;-83
2022/01/07 07:24:32;;;;;;;2.22;1.20;;;-2.30;99.90;;;;;;5036977;28;20028;-83
2022/01/07 07:26:58;;;;;;;2.90;1.13;;;-2.20;99.90;;;;;;5039342;28;20014;-82
2022/01/07 07:29:24;;;;;;;3.60;1.50;;;-2.20;99.90;;;;;;5010995;28;20053;-82
2022/01/07 07:31:54;;;;;;;4.05;1.40;;;-2.10;99.90;;;;;;5034498;28;20034;-82
2022/01/07 07:37:05;;;;;;;5.25;2.30;;;-2.10;99.40;;;;;;5038932;28;20037;-82
2022/01/07 07:39:31;;;;;;;2.28;1.50;;;-2.10;99.60;;;;;;5038889;28;20014;-82
2022/01/07 07:41:56;;;;;;;2.42;1.33;;;-2.00;99.70;;;;;;5038637;28;20053;-83
2022/01/07 07:44:22;;;;;;;2.33;1.00;;;-2.00;99.60;;;;;;5029896;28;20485;-83
2022/01/07 07:46:48;;;;;;;2.03;1.17;;;-2.00;99.70;;;;;;5024407;28;20479;-82
2022/01/07 07:49:15;;;;;;;3.45;1.50;;;-1.90;99.70;;;;;;5018152;28;20037;-82
2022/01/07 07:51:41;;;;;;;2.67;1.60;;;-1.80;99.70;;;;;;5002796;28;20029;-82
2022/01/07 07:54:08;;;;;;;3.20;1.55;;;-1.80;99.60;;;;;;5038621;28;20022;-83
2022/01/07 07:56:34;;;;;;;3.00;1.38;;;-1.60;99.90;;;;;;5021314;28;20101;-83
2022/01/07 07:59:00;;;;;;;3.83;1.33;;;-1.20;99.20;;;;;;5038218;28;20044;-83
2022/01/07 08:01:26;;;;;;;5.78;1.55;;;-1.10;98.30;;;;;;5037874;28;20029;-83
2022/01/07 08:03:52;;;;;;;1.80;1.38;;;-1.10;98.10;;;;;;5036396;28;20026;-83
2022/01/07 08:06:18;;;;;;;3.70;1.80;;;-1.10;98.00;;;;;;5017390;28;20030;-83
2022/01/07 08:08:46;;;;;;;7.85;1.70;;;-1.20;98.00;;;;;;5034261;28;20052;-83
2022/01/07 08:11:13;;;;;;;2.15;1.45;;;-1.20;97.90;;;;;;5017605;28;20033;-83
2022/01/07 08:16:23;;;;;;;5.75;1.67;;;-1.20;98.10;;;;;;5025550;28;20025;-83
2022/01/07 08:18:54;;;;;;;4.03;1.63;;;-1.10;98.10;;;;;;5025438;28;20018;-82
2022/01/07 08:21:24;;;;;;;4.78;2.35;;;-1.00;98.10;;;;;;5031627;28;20070;-82
2022/01/07 08:23:51;;;;;;;6.20;2.00;;;-1.00;97.80;;;;;;5015210;28;20053;-83
2022/01/07 08:26:17;;;;;;;5.32;2.28;;;-0.90;97.60;;;;;;5032447;28;20036;-83
2022/01/07 08:28:49;;;;;;;3.47;1.98;;;-0.90;97.60;;;;;;5032932;28;20026;-83
2022/01/07 08:36:29;;;;;;;5.57;2.33;;;-0.60;97.30;;;;;;5031277;28;20097;-83
2022/01/07 08:38:56;;;;;;;3.53;1.73;;;-0.60;97.00;;;;;;5014174;28;20073;-82
2022/01/07 08:41:25;;;;;;;2.42;1.55;;;-0.40;96.90;;;;;;5013524;28;20029;-83
2022/01/07 08:43:51;;;;;;;3.05;1.70;;;-0.30;96.90;;;;;;5014401;28;20037;-83
2022/01/07 08:46:16;;;;;;;1.70;1.38;;;-0.20;96.70;;;;;;5023905;28;20077;-82
2022/01/07 08:48:43;;;;;;;5.18;2.40;;;0.00;96.40;;;;;;5025919;28;20053;-82
2022/01/07 08:51:09;;;;;;;4.05;1.60;;;0.00;95.70;;;;;;5033464;28;20029;-82
2022/01/07 08:53:36;;;;;;;7.15;2.08;;;0.00;95.30;;;;;;5031648;28;20026;-84
2022/01/07 08:56:02;;;;;;;2.42;1.40;;;0.10;95.40;;;;;;5032886;28;20479;-84
2022/01/07 08:58:28;;;;;;;2.50;1.70;;;0.10;95.30;;;;;;5013591;28;20034;-84
2022/01/07 09:00:55;;;;;;;4.40;1.70;;;0.10;94.80;;;;;;5013955;28;20037;-83
2022/01/07 09:03:21;;;;;;;3.10;1.50;;;0.10;94.60;;;;;;5032954;28;20085;-83
2022/01/07 09:05:47;;;;;;;6.10;2.20;;;0.10;94.80;;;;;;5031409;28;20041;-83
2022/01/07 09:08:13;;;;;;;6.28;1.70;;;0.10;94.50;;;;;;5013625;28;20037;-83
2022/01/07 09:10:39;;;;;;;2.63;1.23;;;0.20;94.70;;;;;;5016093;28;20105;-82
2022/01/07 09:13:06;;;;;;;2.00;1.60;;;0.40;94.70;;;;;;5018640;28;20026;-82
2022/01/07 09:15:32;;;;;;;4.63;1.55;;;0.50;94.10;;;;;;5017390;28;20034;-82
2022/01/07 09:17:57;;;;;;;4.15;1.95;;;0.60;93.40;;;;;;5028840;28;20022;-82
2022/01/07 09:20:24;;;;;;;4.38;1.40;;;0.70;93.40;;;;;;5009222;28;20216;-83
2022/01/07 09:22:50;;;;;;;3.53;1.25;;;0.80;92.50;;;;;;5028739;28;20022;-83
2022/01/07 09:25:20;;;;;;;4.95;1.70;;;0.80;92.70;;;;;;5028545;28;20018;-83
2022/01/07 09:27:45;;;;;;;2.00;1.30;;;0.90;92.60;;;;;;5010733;28;20064;-84
2022/01/07 09:30:12;;;;;;;3.00;1.20;;;0.90;92.60;;;;;;5015448;28;20046;-83
2022/01/07 09:32:38;;;;;;;1.85;1.00;;;1.00;92.70;;;;;;5020018;28;20093;-83
2022/01/07 09:35:06;;;;;;;3.20;1.77;;;1.10;92.80;;;;;;5029407;28;20025;-84
2022/01/07 09:37:32;;;;;;;3.28;1.65;;;1.30;92.00;;;;;;5011543;28;20053;-84
2022/01/07 09:40:00;;;;;;;3.08;1.30;;;1.30;91.70;;;;;;5011237;28;20030;-82
2022/01/07 09:42:32;;;;;;;4.35;1.60;;;1.40;91.80;;;;;;5011494;28;20026;-84
2022/01/07 09:44:58;;;;;;;3.25;1.30;;;1.50;91.40;;;;;;5030894;28;20026;-83
2022/01/07 09:47:27;;;;;;;3.70;1.45;;;1.60;91.40;;;;;;5068154;22;20048;-84
2022/01/07 09:49:53;;;;;;;2.90;1.30;;;1.80;91.30;;;;;;5047053;28;20033;-84
2022/01/07 09:52:19;;;;;;;2.60;1.20;;;2.00;90.90;;;;;;5042712;28;20041;-84
2022/01/07 09:54:47;;;;;;;4.32;1.30;;;2.00;90.40;;;;;;5059269;28;20045;-84
2022/01/07 09:57:13;;;;;;;1.60;1.33;;;2.10;90.20;;;;;;5034351;28;20481;-84
2022/01/07 09:59:39;;;;;;;5.95;1.67;;;2.10;90.00;;;;;;5020046;28;20131;-83
2022/01/07 10:02:09;;;;;;;2.42;1.50;;;2.10;88.90;;;;;;5020726;28;20029;-83
2022/01/07 10:04:40;;;;;;;1.27;0.88;;;2.20;87.80;;;;;;5021196;28;20035;-83
2022/01/07 10:07:16;;;;;;;2.53;1.25;;;2.30;87.00;;;;;;5021488;28;20092;-84
2022/01/07 10:09:58;;;;;;;1.73;1.10;;;2.40;85.60;;;;;;5037883;28;20048;-84
2022/01/07 10:12:25;;;;;;;4.38;1.10;;;2.50;84.60;;;;;;5020424;28;20017;-84
2022/01/07 10:15:15;;;;;;;3.15;1.38;;;2.50;83.90;;;;;;5021983;28;20025;-84
2022/01/07 10:17:52;;;;;;;3.17;1.23;;;2.50;81.70;;;;;;5010622;28;20063;-85
2022/01/07 10:20:42;;;;;;;2.80;1.00;;;2.40;81.50;;;;;;5039645;28;20044;-84
2022/01/07 10:23:23;;;;;;;2.05;0.77;;;2.30;81.90;;;;;;5038711;28;20021;-84
2022/01/07 10:25:54;;;;;;;4.32;1.02;;;2.30;81.90;;;;;;5022221;28;20442;-84
2022/01/07 10:28:21;;;;;;;2.00;0.90;;;2.20;81.30;;;;;;5021828;28;20104;-83
2022/01/07 10:30:52;;;;;;;5.00;0.93;;;2.10;81.80;;;;;;5040375;28;20109;-84
2022/01/07 10:33:18;;;;;;;1.30;0.70;;;2.00;82.10;;;;;;5045351;28;20045;-84
2022/01/07 10:35:45;;;;;;;2.08;0.63;;;2.00;82.30;;;;;;5025750;28;20017;-85
2022/01/07 10:38:15;;;;;;;1.08;0.80;;;1.90;82.20;;;;;;5044567;28;20093;-82
2022/01/07 10:40:41;;;;;;;1.85;0.80;;;1.80;82.10;;;;;;5043157;28;20025;-83
2022/01/07 10:43:27;;;;;;;1.73;0.68;;;1.70;81.70;;;;;;5042513;28;20045;-83
2022/01/07 10:45:55;;;;;;;1.70;0.63;;;1.60;81.70;;;;;;5022376;28;20165;-83
2022/01/07 10:48:25;;;;;;;2.83;0.75;;;1.60;81.80;;;;;;5040809;28;20390;-83
2022/01/07 10:50:53;;;;;;;5.30;0.75;;;1.70;82.10;;;;;;5004134;28;20026;-83
2022/01/07 10:53:27;;;;;;;5.80;1.17;;;1.70;82.40;;;;;;5021148;28;20459;-84
2022/01/07 10:56:14;;;;;;;2.67;0.90;;;1.90;82.70;;;;;;5003285;28;20018;-82
2022/01/07 10:58:42;;;;;;;0.80;0.80;;;2.00;81.30;;;;;;5003130;28;20026;-84
2022/01/07 11:01:21;;;;;;;1.70;0.80;;;2.10;81.30;;;;;;5020882;28;20128;-82
2022/01/07 11:03:55;;;;;;;0.80;0.60;;;2.20;81.20;;;;;;5020497;28;20061;-83
2022/01/07 11:06:22;;;;;;;1.80;0.73;;;2.40;80.60;;;;;;5021523;28;20030;-83
2022/01/07 11:08:53;;;;;;;2.30;0.90;;;2.50;79.60;;;;;;5022000;28;20075;-83
2022/01/07 11:11:20;;;;;;;1.60;0.60;;;2.70;78.90;;;;;;5021581;28;20033;-84
2022/01/07 11:13:46;;;;;;;3.70;1.20;;;2.80;78.60;;;;;;5003846;28;20030;-82
2022/01/07 11:16:12;;;;;;;2.05;0.80;;;3.00;77.70;;;;;;5021893;28;20026;-83
2022/01/07 11:18:40;;;;;;;2.63;1.00;;;3.10;77.20;;;;;;5041666;28;20018;-83
2022/01/07 11:21:07;;;;;;;1.55;0.70;;;3.10;75.90;;;;;;5024687;28;20085;-83
2022/01/07 11:23:38;;;;;;;3.70;0.80;;;3.20;76.00;;;;;;5042012;28;20049;-83
2022/01/07 11:26:09;;;;;;;2.92;0.80;;;3.20;75.00;;;;;;5040249;28;20043;-83
2022/01/07 11:28:36;;;;;;;1.15;0.75;;;3.20;74.70;;;;;;5039840;28;20037;-82
2022/01/07 11:31:05;;;;;;;0.77;0.60;;;3.30;74.60;;;;;;5029831;28;20124;-83
2022/01/07 11:33:31;;;;;;;2.22;0.70;;;3.30;73.70;;;;;;5025302;28;20029;-82
2022/01/07 11:35:58;;;;;;;1.40;0.82;;;3.30;73.10;;;;;;5022724;28;20017;-82
2022/01/07 11:38:32;;;;;;;2.60;0.70;;;3.30;72.20;;;;;;5028084;28;20013;-83
2022/01/07 11:40:58;;;;;;;2.40;1.38;;;3.10;71.60;;;;;;5024906;28;20034;-83
2022/01/07 11:43:31;;;;;;;1.95;0.77;;;3.10;71.80;;;;;;5033104;28;20010;-84
2022/01/07 11:45:59;;;;;;;1.73;0.70;;;3.10;72.60;;;;;;5039885;28;20009;-83
2022/01/07 11:48:27;;;;;;;1.27;0.73;;;3.10;72.50;;;;;;5037668;28;20026;-83
2022/01/07 11:50:56;;;;;;;2.60;1.10;;;3.30;73.10;;;;;;5020456;28;20030;-83
2022/01/07 11:53:23;;;;;;;5.05;0.90;;;3.30;72.20;;;;;;5020058;28;20018;-82
2022/01/07 11:55:49;;;;;;;2.13;0.90;;;3.30;70.10;;;;;;5013069;28;20457;-83
2022/01/07 11:58:16;;;;;;;1.30;0.80;;;3.30;69.80;;;;;;5007027;28;20156;-83
2022/01/07 12:01:03;;;;;;;3.42;0.70;;;3.40;70.70;;;;;;5024572;28;20092;-83
2022/01/07 12:03:38;;;;;;;1.38;0.90;;;3.50;69.90;;;;;;5006477;28;20133;-83
2022/01/07 12:06:24;;;;;;;1.52;1.00;;;3.50;69.20;;;;;;5004892;28;20104;-83
2022/01/07 12:08:56;;;;;;;2.92;1.42;;;3.60;68.00;;;;;;5023707;28;20030;-83
2022/01/07 12:11:24;;;;;;;1.20;0.50;;;3.50;68.80;;;;;;5007210;28;20022;-83
2022/01/07 12:13:50;;;;;;;0.90;0.68;;;3.60;69.30;;;;;;5005702;28;20105;-83
2022/01/07 12:16:24;;;;;;;1.23;0.80;;;3.70;69.00;;;;;;5003734;28;20065;-83
2022/01/07 12:18:50;;;;;;;1.75;1.02;;;3.80;68.10;;;;;;5020960;28;20045;-83
2022/01/07 12:21:16;;;;;;;3.10;1.25;;;3.80;67.90;;;;;;5021115;28;20324;-82
2022/01/07 12:23:42;;;;;;;4.13;1.73;;;3.80;66.90;;;;;;5042793;28;20025;-83
2022/01/07 12:26:08;;;;;;;1.00;0.80;;;3.80;66.90;;;;;;5025914;28;20037;-82
2022/01/07 12:28:42;;;;;;;1.40;0.90;;;3.80;66.90;;;;;;5022506;28;20060;-84
2022/01/07 12:31:11;;;;;;;1.73;1.10;;;3.80;67.20;;;;;;5005239;28;20372;-82
2022/01/07 12:33:50;;;;;;;0.90;0.80;;;3.90;67.20;;;;;;5023925;28;20033;-82
2022/01/07 12:36:27;;;;;;;2.13;1.10;;;4.00;66.50;;;;;;5026033;28;20022;-82
2022/01/07 12:39:08;;;;;;;3.90;1.58;;;4.00;66.90;;;;;;5008520;28;20018;-82
2022/01/07 12:41:36;;;;;;;2.17;1.10;;;3.90;67.10;;;;;;5024946;28;20029;-83
2022/01/07 12:44:13;;;;;;;1.88;1.20;;;4.00;66.90;;;;;;5007387;28;20046;-83
2022/01/07 12:46:40;;;;;;;1.50;1.30;;;3.90;66.10;;;;;;5005571;28;20026;-83
2022/01/07 12:49:08;;;;;;;1.70;1.20;;;3.80;67.00;;;;;;5021915;28;20089;-83
2022/01/07 12:51:35;;;;;;;2.88;1.20;;;3.70;67.50;;;;;;5023337;28;20025;-83
2022/01/07 12:54:08;;;;;;;4.28;1.60;;;3.70;67.90;;;;;;5026093;28;20022;-83
2022/01/07 12:56:35;;;;;;;;;;;3.60;68.40;;;;;;5055156;28;20014;-83
2022/01/07 12:59:18;;;;;;;2.03;1.50;;;3.60;69.00;;;;;;5025135;28;19909;-82
2022/01/07 13:01:46;;;;;;;2.55;1.25;;;3.50;68.90;;;;;;5031434;28;20041;-83
2022/01/07 13:04:14;;;;;;;1.92;1.20;;;3.50;69.30;;;;;;5047555;28;20033;-83